sensor_id;sensor_type;location;lat;lon;timestamp;pressure;altitude;pressure_sealevel;temperature
11792;BMP180;5953;52.372;9.918;2023-04-03T00:01:09;102303.00;;;6.60
11792;BMP180;5953;52.372;9.918;2023-04-03T00:03:37;102309.00;;;6.70
11792;BMP180;5953;52.372;9.918;2023-04-03T00:06:05;102308.00;;;6.70
11792;BMP180;5953;52.372;9.918;2023-04-03T00:08:37;102312.00;;;6.60
11792;BMP180;5953;52.372;9.918;2023-04-03T00:11:05;102319.00;;;6.60
11792;BMP180;5953;52.372;9.918;2023-04-03T00:13:34;102301.00;;;6.60
11792;BMP180;5953;52.372;9.918;2023-04-03T00:16:02;102310.00;;;6.60
11792;BMP180;5953;52.372;9.918;2023-04-03T00:18:31;102290.00;;;6.50
11792;BMP180;5953;52.372;9.918;2023-04-03T00:20:58;102318.00;;;6.60
11792;BMP180;5953;52.372;9.918;2023-04-03T00:23:27;102324.00;;;6.60
11792;BMP180;5953;52.372;9.918;2023-04-03T00:25:56;102314.00;;;6.60
11792;BMP180;5953;52.372;9.918;2023-04-03T00:28:23;102320.00;;;6.50
11792;BMP180;5953;52.372;9.918;2023-04-03T00:30:52;102319.00;;;6.40
11792;BMP180;5953;52.372;9.918;2023-04-03T00:33:19;102330.00;;;6.50
11792;BMP180;5953;52.372;9.918;2023-04-03T00:35:48;102330.00;;;6.60
11792;BMP180;5953;52.372;9.918;2023-04-03T00:38:17;102325.00;;;6.50
11792;BMP180;5953;52.372;9.918;2023-04-03T00:40:46;102324.00;;;6.60
11792;BMP180;5953;52.372;9.918;2023-04-03T00:43:18;102325.00;;;6.70
11792;BMP180;5953;52.372;9.918;2023-04-03T00:45:47;102328.00;;;6.50
11792;BMP180;5953;52.372;9.918;2023-04-03T00:48:17;102332.00;;;6.50
11792;BMP180;5953;52.372;9.918;2023-04-03T00:50:46;102337.00;;;6.60
11792;BMP180;5953;52.372;9.918;2023-04-03T00:53:18;102337.00;;;6.50
11792;BMP180;5953;52.372;9.918;2023-04-03T00:55:48;102341.00;;;6.50
11792;BMP180;5953;52.372;9.918;2023-04-03T00:58:20;102333.00;;;6.30
11792;BMP180;5953;52.372;9.918;2023-04-03T01:00:50;102345.00;;;6.50
11792;BMP180;5953;52.372;9.918;2023-04-03T01:03:22;102350.00;;;6.50
11792;BMP180;5953;52.372;9.918;2023-04-03T01:05:50;102356.00;;;6.40
11792;BMP180;5953;52.372;9.918;2023-04-03T01:08:18;102350.00;;;6.40
11792;BMP180;5953;52.372;9.918;2023-04-03T01:10:46;102347.00;;;6.20
11792;BMP180;5953;52.372;9.918;2023-04-03T01:13:21;102347.00;;;6.40
11792;BMP180;5953;52.372;9.918;2023-04-03T01:15:49;102354.00;;;6.20
11792;BMP180;5953;52.372;9.918;2023-04-03T01:18:16;102344.00;;;6.30
11792;BMP180;5953;52.372;9.918;2023-04-03T01:21:09;102342.00;;;6.30
11792;BMP180;5953;52.372;9.918;2023-04-03T01:26:48;102356.00;;;6.30
11792;BMP180;5953;52.372;9.918;2023-04-03T01:29:17;102347.00;;;6.20
11792;BMP180;5953;52.372;9.918;2023-04-03T01:31:54;102353.00;;;6.20
11792;BMP180;5953;52.372;9.918;2023-04-03T01:34:23;102355.00;;;6.20
11792;BMP180;5953;52.372;9.918;2023-04-03T01:36:51;102350.00;;;6.20
11792;BMP180;5953;52.372;9.918;2023-04-03T01:39:20;102332.00;;;6.00
11792;BMP180;5953;52.372;9.918;2023-04-03T01:41:48;102349.00;;;6.00
11792;BMP180;5953;52.372;9.918;2023-04-03T01:44:16;102339.00;;;6.00
11792;BMP180;5953;52.372;9.918;2023-04-03T01:46:43;102350.00;;;6.00
11792;BMP180;5953;52.372;9.918;2023-04-03T01:49:13;102366.00;;;5.90
11792;BMP180;5953;52.372;9.918;2023-04-03T01:51:40;102362.00;;;5.80
11792;BMP180;5953;52.372;9.918;2023-04-03T01:54:08;102360.00;;;6.00
11792;BMP180;5953;52.372;9.918;2023-04-03T01:56:36;102365.00;;;5.90
11792;BMP180;5953;52.372;9.918;2023-04-03T01:59:05;102360.00;;;5.80
11792;BMP180;5953;52.372;9.918;2023-04-03T02:01:33;102338.00;;;5.90
11792;BMP180;5953;52.372;9.918;2023-04-03T02:04:01;102368.00;;;5.90
11792;BMP180;5953;52.372;9.918;2023-04-03T02:06:30;102355.00;;;5.90
11792;BMP180;5953;52.372;9.918;2023-04-03T02:08:58;102363.00;;;6.00
11792;BMP180;5953;52.372;9.918;2023-04-03T02:11:25;102368.00;;;5.90
11792;BMP180;5953;52.372;9.918;2023-04-03T02:13:53;102356.00;;;5.90
11792;BMP180;5953;52.372;9.918;2023-04-03T02:16:21;102359.00;;;5.80
11792;BMP180;5953;52.372;9.918;2023-04-03T02:18:49;102357.00;;;5.80
11792;BMP180;5953;52.372;9.918;2023-04-03T02:21:17;102357.00;;;5.70
11792;BMP180;5953;52.372;9.918;2023-04-03T02:23:46;102355.00;;;5.70
11792;BMP180;5953;52.372;9.918;2023-04-03T02:26:15;102356.00;;;5.70
11792;BMP180;5953;52.372;9.918;2023-04-03T02:28:43;102358.00;;;5.80
11792;BMP180;5953;52.372;9.918;2023-04-03T02:31:11;102363.00;;;5.70
11792;BMP180;5953;52.372;9.918;2023-04-03T02:33:39;102368.00;;;5.70
11792;BMP180;5953;52.372;9.918;2023-04-03T02:36:08;102371.00;;;5.80
11792;BMP180;5953;52.372;9.918;2023-04-03T02:38:36;102372.00;;;5.70
11792;BMP180;5953;52.372;9.918;2023-04-03T02:41:07;102368.00;;;5.80
11792;BMP180;5953;52.372;9.918;2023-04-03T02:43:36;102376.00;;;5.70
11792;BMP180;5953;52.372;9.918;2023-04-03T02:46:04;102366.00;;;5.60
11792;BMP180;5953;52.372;9.918;2023-04-03T02:48:32;102365.00;;;5.70
11792;BMP180;5953;52.372;9.918;2023-04-03T02:51:00;102377.00;;;5.70
11792;BMP180;5953;52.372;9.918;2023-04-03T02:53:27;102377.00;;;5.60
11792;BMP180;5953;52.372;9.918;2023-04-03T02:55:55;102375.00;;;5.50
11792;BMP180;5953;52.372;9.918;2023-04-03T02:58:24;102351.00;;;5.40
11792;BMP180;5953;52.372;9.918;2023-04-03T03:00:53;102383.00;;;5.50
11792;BMP180;5953;52.372;9.918;2023-04-03T03:03:21;102378.00;;;5.40
11792;BMP180;5953;52.372;9.918;2023-04-03T03:05:49;102387.00;;;5.30
11792;BMP180;5953;52.372;9.918;2023-04-03T03:08:17;102369.00;;;5.30
11792;BMP180;5953;52.372;9.918;2023-04-03T03:10:46;102384.00;;;5.30
11792;BMP180;5953;52.372;9.918;2023-04-03T03:13:14;102385.00;;;5.30
11792;BMP180;5953;52.372;9.918;2023-04-03T03:15:43;102378.00;;;5.30
11792;BMP180;5953;52.372;9.918;2023-04-03T03:18:11;102382.00;;;5.30
11792;BMP180;5953;52.372;9.918;2023-04-03T03:20:38;102365.00;;;5.40
11792;BMP180;5953;52.372;9.918;2023-04-03T03:23:06;102371.00;;;5.30
11792;BMP180;5953;52.372;9.918;2023-04-03T03:25:37;102383.00;;;5.30
11792;BMP180;5953;52.372;9.918;2023-04-03T03:28:05;102382.00;;;5.50
11792;BMP180;5953;52.372;9.918;2023-04-03T03:30:33;102381.00;;;5.40
11792;BMP180;5953;52.372;9.918;2023-04-03T03:33:03;102386.00;;;5.30
11792;BMP180;5953;52.372;9.918;2023-04-03T03:35:31;102392.00;;;5.20
11792;BMP180;5953;52.372;9.918;2023-04-03T03:37:58;102392.00;;;5.20
11792;BMP180;5953;52.372;9.918;2023-04-03T03:40:26;102402.00;;;5.20
11792;BMP180;5953;52.372;9.918;2023-04-03T03:42:54;102399.00;;;5.10
11792;BMP180;5953;52.372;9.918;2023-04-03T03:45:22;102385.00;;;5.00
11792;BMP180;5953;52.372;9.918;2023-04-03T03:47:50;102397.00;;;5.10
11792;BMP180;5953;52.372;9.918;2023-04-03T03:50:19;102400.00;;;5.10
11792;BMP180;5953;52.372;9.918;2023-04-03T03:52:46;102395.00;;;5.00
11792;BMP180;5953;52.372;9.918;2023-04-03T03:55:15;102388.00;;;5.00
11792;BMP180;5953;52.372;9.918;2023-04-03T03:57:42;102385.00;;;5.00
11792;BMP180;5953;52.372;9.918;2023-04-03T04:00:11;102401.00;;;5.10
11792;BMP180;5953;52.372;9.918;2023-04-03T04:02:39;102409.00;;;5.10
11792;BMP180;5953;52.372;9.918;2023-04-03T04:05:07;102411.00;;;5.10
11792;BMP180;5953;52.372;9.918;2023-04-03T04:07:36;102400.00;;;4.90
11792;BMP180;5953;52.372;9.918;2023-04-03T04:10:04;102391.00;;;4.90
11792;BMP180;5953;52.372;9.918;2023-04-03T04:12:32;102357.00;;;4.90
11792;BMP180;5953;52.372;9.918;2023-04-03T04:15:02;102404.00;;;4.90
11792;BMP180;5953;52.372;9.918;2023-04-03T04:17:30;102388.00;;;4.90
11792;BMP180;5953;52.372;9.918;2023-04-03T04:19:59;102368.00;;;5.00
11792;BMP180;5953;52.372;9.918;2023-04-03T04:22:27;102396.00;;;4.90
11792;BMP180;5953;52.372;9.918;2023-04-03T04:24:56;102398.00;;;4.80
11792;BMP180;5953;52.372;9.918;2023-04-03T04:27:24;102386.00;;;5.00
11792;BMP180;5953;52.372;9.918;2023-04-03T04:29:51;102400.00;;;4.90
11792;BMP180;5953;52.372;9.918;2023-04-03T04:32:19;102397.00;;;4.80
11792;BMP180;5953;52.372;9.918;2023-04-03T04:34:47;102401.00;;;4.90
11792;BMP180;5953;52.372;9.918;2023-04-03T04:37:15;102401.00;;;4.70
11792;BMP180;5953;52.372;9.918;2023-04-03T04:39:43;102407.00;;;4.80
11792;BMP180;5953;52.372;9.918;2023-04-03T04:42:12;102412.00;;;4.80
11792;BMP180;5953;52.372;9.918;2023-04-03T04:44:43;102414.00;;;4.80
11792;BMP180;5953;52.372;9.918;2023-04-03T04:47:11;102416.00;;;4.90
11792;BMP180;5953;52.372;9.918;2023-04-03T04:49:39;102412.00;;;4.80
11792;BMP180;5953;52.372;9.918;2023-04-03T04:52:06;102411.00;;;4.80
11792;BMP180;5953;52.372;9.918;2023-04-03T04:54:34;102424.00;;;4.70
11792;BMP180;5953;52.372;9.918;2023-04-03T04:57:02;102400.00;;;4.70
11792;BMP180;5953;52.372;9.918;2023-04-03T04:59:31;102422.00;;;4.80
11792;BMP180;5953;52.372;9.918;2023-04-03T05:01:59;102396.00;;;4.70
11792;BMP180;5953;52.372;9.918;2023-04-03T05:04:27;102411.00;;;4.70
11792;BMP180;5953;52.372;9.918;2023-04-03T05:06:55;102427.00;;;4.80
11792;BMP180;5953;52.372;9.918;2023-04-03T05:09:22;102434.00;;;4.90
11792;BMP180;5953;52.372;9.918;2023-04-03T05:11:50;102446.00;;;5.00
11792;BMP180;5953;52.372;9.918;2023-04-03T05:14:18;102437.00;;;4.80
11792;BMP180;5953;52.372;9.918;2023-04-03T05:16:47;102442.00;;;4.80
11792;BMP180;5953;52.372;9.918;2023-04-03T05:19:18;102445.00;;;4.80
11792;BMP180;5953;52.372;9.918;2023-04-03T05:21:46;102440.00;;;4.80
11792;BMP180;5953;52.372;9.918;2023-04-03T05:24:14;102441.00;;;4.80
11792;BMP180;5953;52.372;9.918;2023-04-03T05:26:42;102443.00;;;4.80
11792;BMP180;5953;52.372;9.918;2023-04-03T05:29:10;102445.00;;;4.90
11792;BMP180;5953;52.372;9.918;2023-04-03T05:31:38;102455.00;;;4.90
11792;BMP180;5953;52.372;9.918;2023-04-03T05:34:07;102447.00;;;4.90
11792;BMP180;5953;52.372;9.918;2023-04-03T05:36:35;102449.00;;;5.00
11792;BMP180;5953;52.372;9.918;2023-04-03T05:39:03;102447.00;;;5.00
11792;BMP180;5953;52.372;9.918;2023-04-03T05:41:31;102462.00;;;5.00
11792;BMP180;5953;52.372;9.918;2023-04-03T05:43:59;102467.00;;;5.10
11792;BMP180;5953;52.372;9.918;2023-04-03T05:46:27;102465.00;;;5.10
11792;BMP180;5953;52.372;9.918;2023-04-03T05:48:55;102468.00;;;5.00
11792;BMP180;5953;52.372;9.918;2023-04-03T05:51:25;102467.00;;;5.00
11792;BMP180;5953;52.372;9.918;2023-04-03T05:54:00;102467.00;;;5.00
11792;BMP180;5953;52.372;9.918;2023-04-03T05:56:30;102459.00;;;5.00
11792;BMP180;5953;52.372;9.918;2023-04-03T05:58:57;102481.00;;;5.00
11792;BMP180;5953;52.372;9.918;2023-04-03T06:01:25;102482.00;;;4.90
11792;BMP180;5953;52.372;9.918;2023-04-03T06:03:53;102479.00;;;5.00
11792;BMP180;5953;52.372;9.918;2023-04-03T06:06:24;102473.00;;;5.00
11792;BMP180;5953;52.372;9.918;2023-04-03T06:08:52;102485.00;;;5.10
11792;BMP180;5953;52.372;9.918;2023-04-03T06:11:19;102500.00;;;5.20
11792;BMP180;5953;52.372;9.918;2023-04-03T06:13:48;102493.00;;;5.20
11792;BMP180;5953;52.372;9.918;2023-04-03T06:16:17;102500.00;;;5.20
11792;BMP180;5953;52.372;9.918;2023-04-03T06:18:45;102493.00;;;5.20
11792;BMP180;5953;52.372;9.918;2023-04-03T06:21:13;102494.00;;;5.40
11792;BMP180;5953;52.372;9.918;2023-04-03T06:23:42;102499.00;;;5.60
11792;BMP180;5953;52.372;9.918;2023-04-03T06:26:10;102502.00;;;5.70
11792;BMP180;5953;52.372;9.918;2023-04-03T06:28:38;102504.00;;;5.80
11792;BMP180;5953;52.372;9.918;2023-04-03T06:31:05;102503.00;;;5.70
11792;BMP180;5953;52.372;9.918;2023-04-03T06:33:33;102488.00;;;6.00
11792;BMP180;5953;52.372;9.918;2023-04-03T06:36:05;102496.00;;;6.10
11792;BMP180;5953;52.372;9.918;2023-04-03T06:38:33;102493.00;;;6.20
11792;BMP180;5953;52.372;9.918;2023-04-03T06:41:03;102499.00;;;6.30
11792;BMP180;5953;52.372;9.918;2023-04-03T06:43:32;102500.00;;;6.40
11792;BMP180;5953;52.372;9.918;2023-04-03T06:46:00;102503.00;;;6.50
11792;BMP180;5953;52.372;9.918;2023-04-03T06:48:28;102502.00;;;6.70
11792;BMP180;5953;52.372;9.918;2023-04-03T06:50:56;102498.00;;;6.60
11792;BMP180;5953;52.372;9.918;2023-04-03T06:53:24;102504.00;;;6.80
11792;BMP180;5953;52.372;9.918;2023-04-03T06:55:52;102499.00;;;7.00
11792;BMP180;5953;52.372;9.918;2023-04-03T06:58:22;102525.00;;;7.00
11792;BMP180;5953;52.372;9.918;2023-04-03T07:00:50;102521.00;;;7.30
11792;BMP180;5953;52.372;9.918;2023-04-03T07:03:18;102531.00;;;7.30
11792;BMP180;5953;52.372;9.918;2023-04-03T07:05:46;102511.00;;;7.40
11792;BMP180;5953;52.372;9.918;2023-04-03T07:08:13;102537.00;;;7.50
11792;BMP180;5953;52.372;9.918;2023-04-03T07:10:41;102532.00;;;7.60
11792;BMP180;5953;52.372;9.918;2023-04-03T07:13:09;102540.00;;;7.80
11792;BMP180;5953;52.372;9.918;2023-04-03T07:15:38;102548.00;;;8.10
11792;BMP180;5953;52.372;9.918;2023-04-03T07:18:06;102527.00;;;8.20
11792;BMP180;5953;52.372;9.918;2023-04-03T07:20:34;102548.00;;;8.40
11792;BMP180;5953;52.372;9.918;2023-04-03T07:23:02;102548.00;;;8.60
11792;BMP180;5953;52.372;9.918;2023-04-03T07:25:30;102543.00;;;8.70
11792;BMP180;5953;52.372;9.918;2023-04-03T07:28:00;102549.00;;;9.00
11792;BMP180;5953;52.372;9.918;2023-04-03T07:30:28;102552.00;;;9.10
11792;BMP180;5953;52.372;9.918;2023-04-03T07:32:57;102512.00;;;9.40
11792;BMP180;5953;52.372;9.918;2023-04-03T07:35:25;102543.00;;;9.40
11792;BMP180;5953;52.372;9.918;2023-04-03T07:37:53;102556.00;;;9.50
11792;BMP180;5953;52.372;9.918;2023-04-03T07:40:20;102555.00;;;9.70
11792;BMP180;5953;52.372;9.918;2023-04-03T07:42:48;102548.00;;;9.80
11792;BMP180;5953;52.372;9.918;2023-04-03T07:45:16;102553.00;;;10.00
11792;BMP180;5953;52.372;9.918;2023-04-03T07:47:46;102554.00;;;10.10
11792;BMP180;5953;52.372;9.918;2023-04-03T07:50:16;102557.00;;;10.50
11792;BMP180;5953;52.372;9.918;2023-04-03T07:52:43;102553.00;;;10.60
11792;BMP180;5953;52.372;9.918;2023-04-03T07:55:12;102555.00;;;10.80
11792;BMP180;5953;52.372;9.918;2023-04-03T07:57:39;102548.00;;;10.70
11792;BMP180;5953;52.372;9.918;2023-04-03T08:00:08;102552.00;;;10.70
11792;BMP180;5953;52.372;9.918;2023-04-03T08:02:36;102551.00;;;10.70
11792;BMP180;5953;52.372;9.918;2023-04-03T08:05:05;102556.00;;;10.80
11792;BMP180;5953;52.372;9.918;2023-04-03T08:07:36;102558.00;;;10.70
11792;BMP180;5953;52.372;9.918;2023-04-03T08:10:05;102551.00;;;10.80
11792;BMP180;5953;52.372;9.918;2023-04-03T08:12:33;102521.00;;;10.60
11792;BMP180;5953;52.372;9.918;2023-04-03T08:15:01;102561.00;;;10.50
11792;BMP180;5953;52.372;9.918;2023-04-03T08:17:29;102558.00;;;10.40
11792;BMP180;5953;52.372;9.918;2023-04-03T08:19:56;102555.00;;;10.40
11792;BMP180;5953;52.372;9.918;2023-04-03T08:22:24;102536.00;;;10.30
11792;BMP180;5953;52.372;9.918;2023-04-03T08:24:54;102555.00;;;10.20
11792;BMP180;5953;52.372;9.918;2023-04-03T08:27:26;102562.00;;;10.00
11792;BMP180;5953;52.372;9.918;2023-04-03T08:29:54;102558.00;;;9.80
11792;BMP180;5953;52.372;9.918;2023-04-03T08:32:21;102554.00;;;10.00
11792;BMP180;5953;52.372;9.918;2023-04-03T08:34:49;102564.00;;;10.10
11792;BMP180;5953;52.372;9.918;2023-04-03T08:37:17;102520.00;;;9.80
11792;BMP180;5953;52.372;9.918;2023-04-03T08:39:45;102529.00;;;9.80
11792;BMP180;5953;52.372;9.918;2023-04-03T08:42:21;102557.00;;;10.20
11792;BMP180;5953;52.372;9.918;2023-04-03T08:44:55;102563.00;;;10.40
11792;BMP180;5953;52.372;9.918;2023-04-03T08:47:26;102546.00;;;10.70
11792;BMP180;5953;52.372;9.918;2023-04-03T08:49:59;102543.00;;;10.70
11792;BMP180;5953;52.372;9.918;2023-04-03T08:52:33;102542.00;;;10.90
11792;BMP180;5953;52.372;9.918;2023-04-03T08:55:06;102542.00;;;10.80
11792;BMP180;5953;52.372;9.918;2023-04-03T08:57:40;102545.00;;;11.00
11792;BMP180;5953;52.372;9.918;2023-04-03T09:00:16;102547.00;;;11.40
11792;BMP180;5953;52.372;9.918;2023-04-03T09:02:46;102534.00;;;11.30
11792;BMP180;5953;52.372;9.918;2023-04-03T09:05:16;102559.00;;;11.30
11792;BMP180;5953;52.372;9.918;2023-04-03T09:07:46;102543.00;;;11.30
11792;BMP180;5953;52.372;9.918;2023-04-03T09:10:19;102540.00;;;11.50
11792;BMP180;5953;52.372;9.918;2023-04-03T09:12:57;102553.00;;;11.70
11792;BMP180;5953;52.372;9.918;2023-04-03T09:15:27;102545.00;;;11.40
11792;BMP180;5953;52.372;9.918;2023-04-03T09:18:12;102541.00;;;11.80
11792;BMP180;5953;52.372;9.918;2023-04-03T09:20:46;102540.00;;;11.80
11792;BMP180;5953;52.372;9.918;2023-04-03T09:23:22;102548.00;;;11.90
11792;BMP180;5953;52.372;9.918;2023-04-03T09:25:56;102539.00;;;12.00
11792;BMP180;5953;52.372;9.918;2023-04-03T09:28:27;102537.00;;;12.30
11792;BMP180;5953;52.372;9.918;2023-04-03T09:31:18;102550.00;;;12.20
11792;BMP180;5953;52.372;9.918;2023-04-03T09:33:47;102535.00;;;12.40
11792;BMP180;5953;52.372;9.918;2023-04-03T09:36:38;102540.00;;;12.50
11792;BMP180;5953;52.372;9.918;2023-04-03T09:39:11;102531.00;;;12.40
11792;BMP180;5953;52.372;9.918;2023-04-03T09:41:39;102532.00;;;12.30
11792;BMP180;5953;52.372;9.918;2023-04-03T09:44:21;102526.00;;;12.20
11792;BMP180;5953;52.372;9.918;2023-04-03T09:46:49;102535.00;;;12.30
11792;BMP180;5953;52.372;9.918;2023-04-03T09:49:17;102525.00;;;12.40
11792;BMP180;5953;52.372;9.918;2023-04-03T09:51:46;102516.00;;;12.30
11792;BMP180;5953;52.372;9.918;2023-04-03T09:54:35;102516.00;;;12.40
11792;BMP180;5953;52.372;9.918;2023-04-03T09:57:12;102531.00;;;12.50
11792;BMP180;5953;52.372;9.918;2023-04-03T09:59:45;102519.00;;;12.10
11792;BMP180;5953;52.372;9.918;2023-04-03T10:02:23;102518.00;;;12.00
11792;BMP180;5953;52.372;9.918;2023-04-03T10:04:57;102521.00;;;11.80
11792;BMP180;5953;52.372;9.918;2023-04-03T10:07:36;102518.00;;;12.00
11792;BMP180;5953;52.372;9.918;2023-04-03T10:10:17;102506.00;;;12.00
11792;BMP180;5953;52.372;9.918;2023-04-03T10:12:46;102512.00;;;11.80
11792;BMP180;5953;52.372;9.918;2023-04-03T10:15:17;102510.00;;;11.80
11792;BMP180;5953;52.372;9.918;2023-04-03T10:17:53;102500.00;;;11.60
11792;BMP180;5953;52.372;9.918;2023-04-03T10:20:30;102506.00;;;11.90
11792;BMP180;5953;52.372;9.918;2023-04-03T10:23:12;102498.00;;;12.20
11792;BMP180;5953;52.372;9.918;2023-04-03T10:25:50;102483.00;;;12.20
11792;BMP180;5953;52.372;9.918;2023-04-03T10:28:26;102508.00;;;12.60
11792;BMP180;5953;52.372;9.918;2023-04-03T10:31:02;102499.00;;;12.60
11792;BMP180;5953;52.372;9.918;2023-04-03T10:33:39;102498.00;;;12.70
11792;BMP180;5953;52.372;9.918;2023-04-03T10:36:17;102497.00;;;12.60
11792;BMP180;5953;52.372;9.918;2023-04-03T10:38:51;102493.00;;;12.20
11792;BMP180;5953;52.372;9.918;2023-04-03T10:41:27;102498.00;;;12.20
11792;BMP180;5953;52.372;9.918;2023-04-03T10:44:07;102496.00;;;12.00
11792;BMP180;5953;52.372;9.918;2023-04-03T10:46:41;102499.00;;;12.10
11792;BMP180;5953;52.372;9.918;2023-04-03T10:49:30;102493.00;;;11.70
11792;BMP180;5953;52.372;9.918;2023-04-03T10:52:13;102480.00;;;11.80
11792;BMP180;5953;52.372;9.918;2023-04-03T10:54:47;102495.00;;;11.30
11792;BMP180;5953;52.372;9.918;2023-04-03T10:57:17;102453.00;;;11.30
11792;BMP180;5953;52.372;9.918;2023-04-03T10:59:49;102491.00;;;11.50
11792;BMP180;5953;52.372;9.918;2023-04-03T11:02:23;102493.00;;;11.50
11792;BMP180;5953;52.372;9.918;2023-04-03T11:05:00;102483.00;;;11.50
11792;BMP180;5953;52.372;9.918;2023-04-03T11:07:33;102484.00;;;11.40
11792;BMP180;5953;52.372;9.918;2023-04-03T11:10:10;102462.00;;;11.30
11792;BMP180;5953;52.372;9.918;2023-04-03T11:12:43;102452.00;;;11.30
11792;BMP180;5953;52.372;9.918;2023-04-03T11:15:15;102459.00;;;11.40
11792;BMP180;5953;52.372;9.918;2023-04-03T11:17:49;102451.00;;;11.50
11792;BMP180;5953;52.372;9.918;2023-04-03T11:20:21;102466.00;;;11.20
11792;BMP180;5953;52.372;9.918;2023-04-03T11:22:58;102471.00;;;11.20
11792;BMP180;5953;52.372;9.918;2023-04-03T11:25:29;102444.00;;;11.50
11792;BMP180;5953;52.372;9.918;2023-04-03T11:28:01;102447.00;;;11.50
11792;BMP180;5953;52.372;9.918;2023-04-03T11:30:33;102437.00;;;11.60
11792;BMP180;5953;52.372;9.918;2023-04-03T11:33:15;102440.00;;;11.80
11792;BMP180;5953;52.372;9.918;2023-04-03T11:35:49;102449.00;;;11.80
11792;BMP180;5953;52.372;9.918;2023-04-03T11:38:22;102445.00;;;11.40
11792;BMP180;5953;52.372;9.918;2023-04-03T11:40:51;102452.00;;;11.50
11792;BMP180;5953;52.372;9.918;2023-04-03T11:43:23;102445.00;;;11.80
11792;BMP180;5953;52.372;9.918;2023-04-03T11:45:54;102443.00;;;11.80
11792;BMP180;5953;52.372;9.918;2023-04-03T11:48:51;102442.00;;;11.80
11792;BMP180;5953;52.372;9.918;2023-04-03T11:51:43;102440.00;;;11.90
11792;BMP180;5953;52.372;9.918;2023-04-03T11:54:48;102433.00;;;11.90
11792;BMP180;5953;52.372;9.918;2023-04-03T11:57:44;102438.00;;;12.10
11792;BMP180;5953;52.372;9.918;2023-04-03T12:00:51;102421.00;;;12.20
11792;BMP180;5953;52.372;9.918;2023-04-03T12:09:33;102430.00;;;12.80
11792;BMP180;5953;52.372;9.918;2023-04-03T12:12:36;102417.00;;;12.60
11792;BMP180;5953;52.372;9.918;2023-04-03T12:18:54;102431.00;;;12.70
11792;BMP180;5953;52.372;9.918;2023-04-03T12:21:24;102436.00;;;12.60
11792;BMP180;5953;52.372;9.918;2023-04-03T12:24:28;102419.00;;;12.80
11792;BMP180;5953;52.372;9.918;2023-04-03T12:27:08;102432.00;;;12.70
11792;BMP180;5953;52.372;9.918;2023-04-03T12:29:38;102398.00;;;12.60
11792;BMP180;5953;52.372;9.918;2023-04-03T12:32:17;102425.00;;;12.40
11792;BMP180;5953;52.372;9.918;2023-04-03T12:35:03;102405.00;;;12.20
11792;BMP180;5953;52.372;9.918;2023-04-03T12:37:43;102397.00;;;12.20
11792;BMP180;5953;52.372;9.918;2023-04-03T12:40:22;102409.00;;;12.50
11792;BMP180;5953;52.372;9.918;2023-04-03T12:45:50;102408.00;;;12.50
11792;BMP180;5953;52.372;9.918;2023-04-03T12:48:24;102391.00;;;12.80
11792;BMP180;5953;52.372;9.918;2023-04-03T12:50:53;102395.00;;;12.60
11792;BMP180;5953;52.372;9.918;2023-04-03T12:53:24;102396.00;;;12.60
11792;BMP180;5953;52.372;9.918;2023-04-03T12:55:55;102391.00;;;12.70
11792;BMP180;5953;52.372;9.918;2023-04-03T12:58:25;102382.00;;;12.60
11792;BMP180;5953;52.372;9.918;2023-04-03T13:01:01;102384.00;;;12.80
11792;BMP180;5953;52.372;9.918;2023-04-03T13:03:30;102378.00;;;12.80
11792;BMP180;5953;52.372;9.918;2023-04-03T13:06:01;102397.00;;;12.70
11792;BMP180;5953;52.372;9.918;2023-04-03T13:08:30;102384.00;;;12.50
11792;BMP180;5953;52.372;9.918;2023-04-03T13:11:02;102384.00;;;12.30
11792;BMP180;5953;52.372;9.918;2023-04-03T13:13:31;102375.00;;;12.30
11792;BMP180;5953;52.372;9.918;2023-04-03T13:15:59;102376.00;;;12.70
11792;BMP180;5953;52.372;9.918;2023-04-03T13:18:30;102373.00;;;12.90
11792;BMP180;5953;52.372;9.918;2023-04-03T13:21:02;102366.00;;;12.90
11792;BMP180;5953;52.372;9.918;2023-04-03T13:23:31;102354.00;;;13.00
11792;BMP180;5953;52.372;9.918;2023-04-03T13:26:03;102369.00;;;12.60
11792;BMP180;5953;52.372;9.918;2023-04-03T13:28:31;102346.00;;;12.70
11792;BMP180;5953;52.372;9.918;2023-04-03T13:31:07;102362.00;;;13.00
11792;BMP180;5953;52.372;9.918;2023-04-03T13:33:38;102360.00;;;13.10
11792;BMP180;5953;52.372;9.918;2023-04-03T13:36:08;102364.00;;;13.10
11792;BMP180;5953;52.372;9.918;2023-04-03T13:38:38;102352.00;;;13.50
11792;BMP180;5953;52.372;9.918;2023-04-03T13:41:24;102349.00;;;13.70
11792;BMP180;5953;52.372;9.918;2023-04-03T13:43:53;102342.00;;;13.70
11792;BMP180;5953;52.372;9.918;2023-04-03T13:46:35;102349.00;;;13.70
11792;BMP180;5953;52.372;9.918;2023-04-03T13:49:18;102341.00;;;13.90
11792;BMP180;5953;52.372;9.918;2023-04-03T13:51:46;102347.00;;;13.50
11792;BMP180;5953;52.372;9.918;2023-04-03T13:54:32;102342.00;;;13.40
11792;BMP180;5953;52.372;9.918;2023-04-03T13:57:11;102343.00;;;13.20
11792;BMP180;5953;52.372;9.918;2023-04-03T13:59:40;102340.00;;;13.50
11792;BMP180;5953;52.372;9.918;2023-04-03T14:02:15;102331.00;;;13.70
11792;BMP180;5953;52.372;9.918;2023-04-03T14:04:50;102328.00;;;13.40
11792;BMP180;5953;52.372;9.918;2023-04-03T14:07:19;102332.00;;;13.30
11792;BMP180;5953;52.372;9.918;2023-04-03T14:09:48;102331.00;;;13.40
11792;BMP180;5953;52.372;9.918;2023-04-03T14:12:21;102322.00;;;13.20
11792;BMP180;5953;52.372;9.918;2023-04-03T14:14:57;102321.00;;;13.20
11792;BMP180;5953;52.372;9.918;2023-04-03T14:17:26;102333.00;;;13.00
11792;BMP180;5953;52.372;9.918;2023-04-03T14:19:55;102327.00;;;12.90
11792;BMP180;5953;52.372;9.918;2023-04-03T14:22:26;102318.00;;;12.80
11792;BMP180;5953;52.372;9.918;2023-04-03T14:24:55;102314.00;;;13.00
11792;BMP180;5953;52.372;9.918;2023-04-03T14:27:27;102328.00;;;13.00
11792;BMP180;5953;52.372;9.918;2023-04-03T14:29:56;102320.00;;;13.10
11792;BMP180;5953;52.372;9.918;2023-04-03T14:32:25;102296.00;;;13.20
11792;BMP180;5953;52.372;9.918;2023-04-03T14:34:53;102319.00;;;13.40
11792;BMP180;5953;52.372;9.918;2023-04-03T14:37:23;102313.00;;;13.80
11792;BMP180;5953;52.372;9.918;2023-04-03T14:39:53;102313.00;;;13.60
11792;BMP180;5953;52.372;9.918;2023-04-03T14:42:23;102310.00;;;13.60
11792;BMP180;5953;52.372;9.918;2023-04-03T14:44:53;102307.00;;;13.50
11792;BMP180;5953;52.372;9.918;2023-04-03T14:47:25;102302.00;;;13.70
11792;BMP180;5953;52.372;9.918;2023-04-03T14:49:58;102290.00;;;13.50
11792;BMP180;5953;52.372;9.918;2023-04-03T14:52:29;102296.00;;;13.60
11792;BMP180;5953;52.372;9.918;2023-04-03T14:54:58;102296.00;;;13.30